createdAt,value
2017-05-11T00:00:04.987Z,97.70
2017-05-11T00:02:34.237Z,97.40
2017-05-11T00:05:02.575Z,97.30
2017-05-11T00:07:30.899Z,97.30
2017-05-11T00:18:38.958Z,97.50
2017-05-11T00:21:07.326Z,97.50
2017-05-11T00:23:35.756Z,97.50
2017-05-11T00:26:04.507Z,97.50
2017-05-11T00:28:33.638Z,97.60
2017-05-11T00:31:02.192Z,97.60
2017-05-11T00:33:30.837Z,97.70
2017-05-11T00:35:59.448Z,97.70
2017-05-11T00:38:28.081Z,97.70
2017-05-11T00:40:56.736Z,97.70
2017-05-11T00:43:25.866Z,97.80
2017-05-11T00:45:54.493Z,97.70
2017-05-11T00:48:23.267Z,97.70
2017-05-11T00:50:51.946Z,97.80
2017-05-11T00:53:20.472Z,97.70
2017-05-11T00:55:50.062Z,97.70
2017-05-11T00:58:19.697Z,97.70
2017-05-11T01:00:48.982Z,97.70
2017-05-11T01:03:17.577Z,97.70
2017-05-11T01:05:47.613Z,97.60
2017-05-11T01:08:16.347Z,97.50
2017-05-11T01:10:46.104Z,97.50
2017-05-11T01:13:14.706Z,97.60
2017-05-11T01:15:43.240Z,97.50
2017-05-11T01:18:11.802Z,97.50
2017-05-11T01:20:40.538Z,97.60
2017-05-11T01:23:09.192Z,97.60
2017-05-11T01:25:37.893Z,97.70
2017-05-11T01:28:07.195Z,97.60
2017-05-11T01:30:35.898Z,97.60
2017-05-11T01:33:05.356Z,97.60
2017-05-11T01:35:33.937Z,97.70
2017-05-11T01:38:02.507Z,97.60
2017-05-11T01:40:31.223Z,97.60
2017-05-11T01:42:59.864Z,97.60
2017-05-11T01:45:28.633Z,97.50
2017-05-11T01:47:57.460Z,97.50
2017-05-11T01:50:26.042Z,97.50
2017-05-11T01:52:54.739Z,97.60
2017-05-11T01:55:23.398Z,97.50
2017-05-11T01:57:52.128Z,97.60
2017-05-11T02:00:20.826Z,97.70
2017-05-11T02:02:50.457Z,97.70
2017-05-11T02:05:19.862Z,97.80
2017-05-11T02:07:48.509Z,97.80
2017-05-11T02:10:17.966Z,97.80
2017-05-11T02:12:46.501Z,97.80
2017-05-11T02:15:15.087Z,97.70
2017-05-11T02:17:44.419Z,97.70
2017-05-11T02:20:13.000Z,98.00
2017-05-11T02:22:41.645Z,97.70
2017-05-11T02:25:10.192Z,97.70
2017-05-11T02:27:38.779Z,97.70
2017-05-11T02:30:07.303Z,97.80
2017-05-11T02:32:36.576Z,97.70
2017-05-11T02:35:05.165Z,97.80
2017-05-11T02:37:34.045Z,97.80
2017-05-11T02:40:02.672Z,97.80
2017-05-11T02:42:31.362Z,97.90
2017-05-11T02:45:00.633Z,97.80
2017-05-11T02:47:29.374Z,97.90
2017-05-11T02:49:57.933Z,97.90
2017-05-11T02:52:26.601Z,98.00
2017-05-11T02:54:55.260Z,98.00
2017-05-11T02:57:23.768Z,98.00
2017-05-11T02:59:52.399Z,98.10
2017-05-11T03:02:21.006Z,98.10
2017-05-11T03:04:49.555Z,98.10
2017-05-11T03:07:18.113Z,98.10
2017-05-11T03:09:47.062Z,98.10
2017-05-11T03:12:15.687Z,98.10
2017-05-11T03:14:44.942Z,98.10
2017-05-11T03:17:13.885Z,98.00
2017-05-11T03:19:42.520Z,98.10
2017-05-11T03:22:11.125Z,98.10
2017-05-11T03:24:47.247Z,98.00
2017-05-11T03:27:15.917Z,98.00
2017-05-11T03:29:44.475Z,98.10
2017-05-11T03:32:13.918Z,98.10
2017-05-11T03:34:42.405Z,98.10
2017-05-11T03:37:11.063Z,98.10
2017-05-11T03:39:39.743Z,98.10
2017-05-11T03:42:08.334Z,98.00
2017-05-11T03:44:36.839Z,98.00
2017-05-11T03:47:05.714Z,98.10
2017-05-11T03:49:34.301Z,98.10
2017-05-11T03:52:03.761Z,98.10
2017-05-11T03:54:32.694Z,98.10
2017-05-11T03:57:01.393Z,98.10
2017-05-11T03:59:30.177Z,98.10
2017-05-11T04:01:59.018Z,98.10
2017-05-11T04:04:27.604Z,98.00
2017-05-11T04:06:56.134Z,98.10
2017-05-11T04:09:25.039Z,98.10
2017-05-11T04:11:53.611Z,98.20
2017-05-11T04:14:22.977Z,98.40
2017-05-11T04:16:51.702Z,98.20
2017-05-11T04:19:20.256Z,98.30
2017-05-11T04:21:48.935Z,98.30
2017-05-11T04:24:17.642Z,98.30
2017-05-11T04:26:46.271Z,98.40
2017-05-11T04:29:14.766Z,98.70
2017-05-11T04:31:43.468Z,98.90
2017-05-11T04:34:12.087Z,99.00
2017-05-11T04:36:40.776Z,99.20
2017-05-11T04:39:09.410Z,99.40
2017-05-11T04:41:38.157Z,99.30
2017-05-11T04:44:09.092Z,99.00
2017-05-11T04:46:37.741Z,99.00
2017-05-11T04:49:06.356Z,99.10
2017-05-11T04:51:35.322Z,98.90
2017-05-11T04:54:04.012Z,99.00
2017-05-11T04:56:32.677Z,98.90
2017-05-11T04:59:01.323Z,98.80
2017-05-11T05:01:30.781Z,99.10
2017-05-11T05:03:59.379Z,98.90
2017-05-11T05:06:28.142Z,98.90
2017-05-11T05:08:57.519Z,98.60
2017-05-11T05:11:27.144Z,98.70
2017-05-11T05:13:57.588Z,98.60
2017-05-11T05:16:27.089Z,98.60
2017-05-11T05:18:55.848Z,98.20
2017-05-11T05:21:25.500Z,97.90
2017-05-11T05:23:54.223Z,98.00
2017-05-11T05:26:22.781Z,98.00
2017-05-11T05:28:52.284Z,97.70
2017-05-11T05:31:20.836Z,97.70
2017-05-11T05:33:49.536Z,97.50
2017-05-11T05:36:18.963Z,97.30
2017-05-11T05:38:48.566Z,97.20
2017-05-11T05:41:17.229Z,97.20
2017-05-11T05:43:46.123Z,97.20
2017-05-11T05:46:14.790Z,97.00
2017-05-11T05:48:43.502Z,96.90
2017-05-11T05:51:13.302Z,96.80
2017-05-11T05:53:42.135Z,96.60
2017-05-11T05:56:10.993Z,96.50
2017-05-11T05:58:41.781Z,96.40
2017-05-11T06:01:14.110Z,96.30
2017-05-11T06:03:43.873Z,96.00
2017-05-11T06:06:13.879Z,95.70
2017-05-11T06:08:44.569Z,95.60
2017-05-11T06:11:14.737Z,96.30
2017-05-11T06:13:44.396Z,95.70
2017-05-11T06:16:15.202Z,95.40
2017-05-11T06:18:45.114Z,95.40
2017-05-11T06:21:20.686Z,95.00
2017-05-11T06:23:49.958Z,94.60
2017-05-11T06:26:20.923Z,93.90
2017-05-11T06:28:55.346Z,94.70
2017-05-11T06:31:29.025Z,93.60
2017-05-11T06:33:58.414Z,93.60
2017-05-11T06:36:28.174Z,93.30
2017-05-11T06:38:57.024Z,92.70
2017-05-11T06:41:27.200Z,92.70
2017-05-11T06:43:57.844Z,92.70
2017-05-11T06:46:28.473Z,92.30
2017-05-11T06:48:58.254Z,92.30
2017-05-11T06:51:27.100Z,92.20
2017-05-11T06:53:56.542Z,91.50
2017-05-11T06:56:25.465Z,91.50
2017-05-11T06:58:55.899Z,91.20
2017-05-11T07:01:25.625Z,91.40
2017-05-11T07:03:54.707Z,91.50
2017-05-11T07:06:23.357Z,91.00
2017-05-11T07:08:52.163Z,90.70
2017-05-11T07:11:20.932Z,90.90
2017-05-11T07:13:51.239Z,90.40
2017-05-11T07:16:20.530Z,90.20
2017-05-11T07:18:49.571Z,90.40
2017-05-11T07:21:18.534Z,89.40
2017-05-11T07:23:47.924Z,90.00
2017-05-11T07:26:19.240Z,88.70
2017-05-11T07:28:48.358Z,89.40
2017-05-11T07:31:18.643Z,88.00
2017-05-11T07:33:48.104Z,86.70
2017-05-11T07:36:19.679Z,86.60
2017-05-11T07:38:49.252Z,86.00
2017-05-11T07:41:20.906Z,86.20
2017-05-11T07:43:49.711Z,84.30
2017-05-11T07:46:19.670Z,85.50
2017-05-11T07:48:48.947Z,86.80
2017-05-11T07:51:18.580Z,88.50
2017-05-11T07:53:48.271Z,87.50
2017-05-11T07:56:16.912Z,85.30
2017-05-11T07:58:46.827Z,84.30
2017-05-11T08:01:17.063Z,85.00
2017-05-11T08:03:45.946Z,83.40
2017-05-11T08:06:15.275Z,83.30
2017-05-11T08:08:44.954Z,82.20
2017-05-11T08:11:14.591Z,82.90
2017-05-11T08:13:44.452Z,85.30
2017-05-11T08:16:15.027Z,85.40
2017-05-11T08:18:44.144Z,85.90
2017-05-11T08:21:12.803Z,84.20
2017-05-11T08:23:41.687Z,81.30
2017-05-11T08:26:12.455Z,82.90
2017-05-11T08:28:41.771Z,81.40
2017-05-11T08:31:12.612Z,82.50
2017-05-11T08:33:41.370Z,79.40
2017-05-11T08:36:12.607Z,80.60
2017-05-11T08:38:42.906Z,80.60
2017-05-11T08:41:12.466Z,83.60
2017-05-11T08:43:41.189Z,79.70
2017-05-11T08:46:10.695Z,78.90
2017-05-11T08:48:40.317Z,78.60
2017-05-11T08:51:09.816Z,79.40
2017-05-11T08:53:38.791Z,79.00
2017-05-11T08:56:07.976Z,77.50
2017-05-11T08:58:36.930Z,80.30
2017-05-11T09:01:05.906Z,79.30
2017-05-11T09:03:35.690Z,76.90
2017-05-11T09:06:05.476Z,77.60
2017-05-11T09:08:36.330Z,81.70
2017-05-11T09:11:06.642Z,79.30
2017-05-11T09:13:35.750Z,77.70
2017-05-11T09:16:06.280Z,77.60
2017-05-11T09:18:36.778Z,76.60
2017-05-11T09:21:05.457Z,78.70
2017-05-11T09:23:34.730Z,76.10
2017-05-11T09:26:04.685Z,72.70
2017-05-11T09:28:36.504Z,73.20
2017-05-11T09:31:08.171Z,70.20
2017-05-11T09:33:37.091Z,72.20
2017-05-11T09:36:09.045Z,71.80
2017-05-11T09:38:39.917Z,70.20
2017-05-11T09:41:09.266Z,70.00
2017-05-11T09:43:38.715Z,70.10
2017-05-11T09:46:08.927Z,73.60
2017-05-11T09:48:39.345Z,72.30
2017-05-11T09:51:08.183Z,74.20
2017-05-11T09:53:39.342Z,73.40
2017-05-11T09:56:10.021Z,69.40
2017-05-11T09:58:40.202Z,69.00
2017-05-11T10:01:10.556Z,72.50
2017-05-11T10:03:39.622Z,71.40
2017-05-11T10:06:11.562Z,71.10
2017-05-11T10:08:40.488Z,69.60
2017-05-11T10:11:09.265Z,68.90
2017-05-11T10:13:37.658Z,68.50
2017-05-11T10:16:06.789Z,66.50
2017-05-11T10:18:35.124Z,65.00
2017-05-11T10:21:03.452Z,66.30
2017-05-11T10:23:31.821Z,67.30
2017-05-11T10:26:00.155Z,67.50
2017-05-11T10:28:28.494Z,65.20
2017-05-11T10:30:57.087Z,65.60
2017-05-11T10:33:25.413Z,64.80
2017-05-11T10:35:54.504Z,67.20
2017-05-11T10:38:23.611Z,64.90
2017-05-11T10:40:51.939Z,67.40
2017-05-11T10:43:20.282Z,67.00
2017-05-11T10:45:48.944Z,67.50
2017-05-11T10:48:18.015Z,66.70
2017-05-11T10:50:46.348Z,68.10
2017-05-11T10:53:14.749Z,63.70
2017-05-11T10:55:43.078Z,64.50
2017-05-11T10:58:12.149Z,65.60
2017-05-11T11:00:40.526Z,63.40
2017-05-11T11:03:08.878Z,64.40
2017-05-11T11:05:37.210Z,61.80
2017-05-11T11:08:05.701Z,61.90
2017-05-11T11:10:34.028Z,64.50
2017-05-11T11:13:02.356Z,62.60
2017-05-11T11:15:30.845Z,61.20
2017-05-11T11:17:59.179Z,61.10
2017-05-11T11:20:28.784Z,64.20
2017-05-11T11:22:57.185Z,61.80
2017-05-11T11:25:26.251Z,61.80
2017-05-11T11:27:54.575Z,60.90
2017-05-11T11:30:22.956Z,62.00
2017-05-11T11:32:51.287Z,61.20
2017-05-11T11:35:19.620Z,63.70
2017-05-11T11:37:47.998Z,65.00
2017-05-11T11:40:16.359Z,61.40
2017-05-11T11:42:44.680Z,62.40
2017-05-11T11:45:13.305Z,63.50
2017-05-11T11:47:42.364Z,62.00
2017-05-11T11:50:10.699Z,61.60
2017-05-11T11:52:39.151Z,63.00
2017-05-11T11:55:08.226Z,61.70
2017-05-11T11:57:36.554Z,62.50
2017-05-11T12:00:04.972Z,61.90
2017-05-11T12:02:33.325Z,61.40
2017-05-11T12:05:01.650Z,59.10
2017-05-11T12:07:31.076Z,59.30
2017-05-11T12:09:59.396Z,60.90
2017-05-11T12:12:27.735Z,61.00
2017-05-11T12:14:56.247Z,60.20
2017-05-11T12:17:24.584Z,61.00
2017-05-11T12:19:53.674Z,61.50
2017-05-11T12:22:22.773Z,60.00
2017-05-11T12:24:51.842Z,60.40
2017-05-11T12:27:20.160Z,59.00
2017-05-11T12:29:48.725Z,61.30
2017-05-11T12:32:17.810Z,59.30
2017-05-11T12:34:46.182Z,60.50
2017-05-11T12:37:14.641Z,57.80
2017-05-11T12:39:42.957Z,58.30
2017-05-11T12:42:13.039Z,58.90
2017-05-11T12:44:41.684Z,59.50
2017-05-11T12:47:10.005Z,55.90
2017-05-11T12:49:38.333Z,56.60
2017-05-11T12:52:06.813Z,57.50
2017-05-11T12:54:35.145Z,56.90
2017-05-11T12:57:03.476Z,57.50
2017-05-11T12:59:32.041Z,56.60
2017-05-11T13:02:00.387Z,57.60
2017-05-11T13:04:28.712Z,56.50
2017-05-11T13:06:57.080Z,55.30
2017-05-11T13:09:25.401Z,56.00
2017-05-11T13:11:53.738Z,55.30
2017-05-11T13:14:22.198Z,55.60
2017-05-11T13:16:51.274Z,57.80
2017-05-11T13:19:19.603Z,58.50
2017-05-11T13:21:48.280Z,57.00
2017-05-11T13:24:16.605Z,58.00
2017-05-11T13:26:44.922Z,56.80
2017-05-11T13:29:13.311Z,57.50
2017-05-11T13:31:41.656Z,56.30
2017-05-11T13:34:09.972Z,55.70
2017-05-11T13:36:38.373Z,55.50
2017-05-11T13:39:06.699Z,55.80
2017-05-11T13:41:35.767Z,54.70
2017-05-11T13:44:04.135Z,55.50
2017-05-11T13:46:33.106Z,56.20
2017-05-11T13:49:01.431Z,53.60
2017-05-11T13:51:30.542Z,57.90
2017-05-11T13:53:59.604Z,58.10
2017-05-11T13:56:27.926Z,56.90
2017-05-11T13:58:56.497Z,56.80
2017-05-11T14:01:25.565Z,54.10
2017-05-11T14:03:53.885Z,53.70
2017-05-11T14:06:22.298Z,55.50
2017-05-11T14:08:50.639Z,56.10
2017-05-11T14:11:18.976Z,56.00
2017-05-11T14:13:47.888Z,57.30
2017-05-11T14:16:16.955Z,56.40
2017-05-11T14:18:45.284Z,56.20
2017-05-11T14:21:13.741Z,56.50
2017-05-11T14:23:42.811Z,58.70
2017-05-11T14:26:11.132Z,56.90
2017-05-11T14:28:39.590Z,58.00
2017-05-11T14:31:08.653Z,55.50
2017-05-11T14:33:36.972Z,57.50
2017-05-11T14:36:05.369Z,58.80
2017-05-11T14:38:33.692Z,57.90
2017-05-11T14:41:02.028Z,57.80
2017-05-11T14:43:30.691Z,58.80
2017-05-11T14:45:59.016Z,58.00
2017-05-11T14:48:27.337Z,58.00
2017-05-11T14:50:56.868Z,58.10
2017-05-11T14:53:25.188Z,57.50
2017-05-11T14:55:54.411Z,56.30
2017-05-11T14:58:22.779Z,56.90
2017-05-11T15:00:51.102Z,56.20
2017-05-11T15:03:19.437Z,56.20
2017-05-11T15:05:47.806Z,57.70
2017-05-11T15:08:16.140Z,57.10
2017-05-11T15:10:44.473Z,57.10
2017-05-11T15:13:13.668Z,58.90
2017-05-11T15:15:41.991Z,59.00
2017-05-11T15:18:10.323Z,58.70
2017-05-11T15:20:38.705Z,57.90
2017-05-11T15:23:07.776Z,57.80
2017-05-11T15:25:36.096Z,56.70
2017-05-11T15:28:04.561Z,57.80
2017-05-11T15:30:33.627Z,57.50
2017-05-11T15:33:01.960Z,56.50
2017-05-11T15:35:30.446Z,57.10
2017-05-11T15:37:58.767Z,57.80
2017-05-11T15:40:27.101Z,57.70
2017-05-11T15:42:55.566Z,56.90
2017-05-11T15:45:23.893Z,58.40
2017-05-11T15:47:52.215Z,57.90
2017-05-11T15:50:20.777Z,58.30
2017-05-11T15:52:49.847Z,56.80
2017-05-11T15:55:18.181Z,56.40
2017-05-11T15:57:46.576Z,55.90
2017-05-11T16:00:14.921Z,55.60
2017-05-11T16:02:43.988Z,54.60
2017-05-11T16:05:12.616Z,55.00
2017-05-11T16:07:40.962Z,56.10
2017-05-11T16:10:10.043Z,56.50
2017-05-11T16:12:38.595Z,56.10
2017-05-11T16:15:06.925Z,56.90
2017-05-11T16:17:35.985Z,56.30
2017-05-11T16:20:04.464Z,56.40
2017-05-11T16:22:32.808Z,55.80
2017-05-11T16:25:01.128Z,55.60
2017-05-11T16:27:29.507Z,55.60
2017-05-11T16:29:57.842Z,55.60
2017-05-11T16:32:27.392Z,55.00
2017-05-11T16:34:55.844Z,54.30
2017-05-11T16:37:24.239Z,55.20
2017-05-11T16:39:52.564Z,55.30
2017-05-11T16:42:20.957Z,54.80
2017-05-11T16:44:49.297Z,55.30
2017-05-11T16:47:17.657Z,55.10
2017-05-11T16:49:46.032Z,55.30
2017-05-11T16:52:14.361Z,55.30
2017-05-11T16:54:42.709Z,55.90
2017-05-11T16:57:11.986Z,55.70
2017-05-11T16:59:42.273Z,56.20
2017-05-11T17:02:10.653Z,55.90
2017-05-11T17:04:39.056Z,56.20
2017-05-11T17:07:07.404Z,56.40
2017-05-11T17:09:35.771Z,56.50
2017-05-11T17:12:04.321Z,56.00
2017-05-11T17:14:32.657Z,55.70
2017-05-11T17:17:00.992Z,55.50
2017-05-11T17:19:29.420Z,54.50
2017-05-11T17:21:57.778Z,55.10
2017-05-11T17:24:26.177Z,55.00
2017-05-11T17:26:54.698Z,55.30
2017-05-11T17:29:23.803Z,56.50
2017-05-11T17:31:52.948Z,57.50
2017-05-11T17:34:21.441Z,58.20
2017-05-11T17:36:49.954Z,58.90
2017-05-11T17:39:18.352Z,59.20
2017-05-11T17:41:47.418Z,59.80
2017-05-11T17:44:15.800Z,60.00
2017-05-11T17:46:44.142Z,60.40
2017-05-11T17:49:12.765Z,64.50
2017-05-11T17:51:41.844Z,68.40
2017-05-11T17:54:10.349Z,69.40
2017-05-11T17:56:40.875Z,70.40
2017-05-11T17:59:09.977Z,71.20
2017-05-11T18:01:39.139Z,72.30
2017-05-11T18:04:10.516Z,72.90
2017-05-11T18:06:38.915Z,73.60
2017-05-11T18:09:07.277Z,74.40
2017-05-11T18:11:38.607Z,74.90
2017-05-11T18:14:07.135Z,75.80
2017-05-11T18:16:35.506Z,76.60
2017-05-11T18:19:03.879Z,77.10
2017-05-11T18:21:32.212Z,77.80
2017-05-11T18:24:00.718Z,78.40
2017-05-11T18:26:29.812Z,78.90
2017-05-11T18:29:00.349Z,78.90
2017-05-11T18:31:29.599Z,79.20
2017-05-11T18:33:58.023Z,79.60
2017-05-11T18:36:28.421Z,80.50
2017-05-11T18:38:57.184Z,81.00
2017-05-11T18:41:26.145Z,81.00
2017-05-11T18:43:54.603Z,81.70
2017-05-11T18:46:23.265Z,82.20
2017-05-11T18:48:51.614Z,82.30
2017-05-11T18:51:19.952Z,82.50
2017-05-11T18:53:48.337Z,82.80
2017-05-11T18:56:16.701Z,83.30
2017-05-11T18:58:45.807Z,83.60
2017-05-11T19:01:14.608Z,84.20
2017-05-11T19:03:43.005Z,84.40
2017-05-11T19:06:11.456Z,85.00
2017-05-11T19:08:40.830Z,85.40
2017-05-11T19:11:09.166Z,85.80
2017-05-11T19:13:37.616Z,86.30
2017-05-11T19:16:06.114Z,86.50
2017-05-11T19:18:34.450Z,87.00
2017-05-11T19:21:02.787Z,87.20
2017-05-11T19:23:31.333Z,87.70
2017-05-11T19:25:59.707Z,88.20
2017-05-11T19:28:28.772Z,87.70
2017-05-11T19:30:57.233Z,88.10
2017-05-11T19:33:25.567Z,88.40
2017-05-11T19:35:53.896Z,88.50
2017-05-11T19:38:22.420Z,88.60
2017-05-11T19:40:50.756Z,89.00
2017-05-11T19:43:19.138Z,89.10
2017-05-11T19:45:47.852Z,89.50
2017-05-11T19:48:16.929Z,89.60
2017-05-11T19:50:45.275Z,89.60
2017-05-11T19:53:13.749Z,89.40
2017-05-11T19:55:42.113Z,89.20
2017-05-11T19:58:10.464Z,88.90
2017-05-11T20:00:38.919Z,88.50
2017-05-11T20:03:07.248Z,88.70
2017-05-11T20:05:35.591Z,88.40
2017-05-11T20:08:04.795Z,88.50
2017-05-11T20:10:33.120Z,88.30
2017-05-11T20:13:01.461Z,87.80
2017-05-11T20:15:29.925Z,87.70
2017-05-11T20:17:58.980Z,87.60
2017-05-11T20:20:27.307Z,87.50
2017-05-11T20:22:55.839Z,87.20
2017-05-11T20:25:24.379Z,87.50
2017-05-11T20:27:52.706Z,87.20
2017-05-11T20:30:21.649Z,87.60
2017-05-11T20:32:54.513Z,88.40
2017-05-11T20:35:23.772Z,87.70
2017-05-11T20:37:52.115Z,87.80
2017-05-11T20:40:20.476Z,87.90
2017-05-11T20:42:49.772Z,87.70
2017-05-11T20:45:18.837Z,87.90
2017-05-11T20:47:47.162Z,87.90
2017-05-11T20:50:15.901Z,88.10
2017-05-11T20:52:44.257Z,87.50
2017-05-11T20:55:12.596Z,87.50
2017-05-11T20:57:41.070Z,87.50
2017-05-11T21:00:09.401Z,87.10
2017-05-11T21:02:37.744Z,87.30
2017-05-11T21:05:06.121Z,86.90
2017-05-11T21:07:34.495Z,86.50
2017-05-11T21:10:02.834Z,86.30
2017-05-11T21:12:31.292Z,86.50
2017-05-11T21:14:59.889Z,86.20
2017-05-11T21:17:28.292Z,85.70
2017-05-11T21:19:57.693Z,86.00
2017-05-11T21:22:26.179Z,86.20
2017-05-11T21:24:55.495Z,85.80
2017-05-11T21:27:23.993Z,86.10
2017-05-11T21:29:52.312Z,86.00
2017-05-11T21:32:20.635Z,86.40
2017-05-11T21:34:49.104Z,86.30
2017-05-11T21:37:17.432Z,86.50
2017-05-11T21:39:45.770Z,87.00
2017-05-11T21:42:14.245Z,87.00
2017-05-11T21:44:42.600Z,87.00
2017-05-11T21:47:10.947Z,87.10
2017-05-11T21:49:39.423Z,87.30
2017-05-11T21:52:07.776Z,87.40
2017-05-11T21:54:36.149Z,87.70
2017-05-11T21:57:04.620Z,87.70
2017-05-11T21:59:32.951Z,87.90
2017-05-11T22:02:01.331Z,88.00
2017-05-11T22:04:29.700Z,88.10
2017-05-11T22:06:58.033Z,88.10
2017-05-11T22:09:26.383Z,88.00
2017-05-11T22:11:54.852Z,88.30
2017-05-11T22:14:23.203Z,88.50
2017-05-11T22:16:51.566Z,88.80
2017-05-11T22:19:19.985Z,89.00
2017-05-11T22:21:48.525Z,89.30
2017-05-11T22:24:16.923Z,89.20
2017-05-11T22:26:45.605Z,89.50
2017-05-11T22:29:13.953Z,89.30
2017-05-11T22:31:42.287Z,89.30
2017-05-11T22:34:10.823Z,89.10
2017-05-11T22:36:39.153Z,89.50
2017-05-11T22:39:08.088Z,89.70
2017-05-11T22:41:36.545Z,89.30
2017-05-11T22:44:04.876Z,89.40
2017-05-11T22:46:33.217Z,89.30
2017-05-11T22:49:01.663Z,89.80
2017-05-11T22:51:30.009Z,89.80
2017-05-11T22:53:58.523Z,89.80
2017-05-11T22:56:27.694Z,90.10
2017-05-11T22:58:56.025Z,90.10
2017-05-11T23:01:24.359Z,89.80
2017-05-11T23:03:53.096Z,90.10
2017-05-11T23:06:21.456Z,90.10
2017-05-11T23:08:50.094Z,90.00
2017-05-11T23:11:18.612Z,90.00
2017-05-11T23:13:47.693Z,90.00
2017-05-11T23:16:16.043Z,89.90
2017-05-11T23:18:44.597Z,89.70
2017-05-11T23:21:12.921Z,89.50
2017-05-11T23:23:41.238Z,89.50
2017-05-11T23:26:09.603Z,89.60
2017-05-11T23:28:38.703Z,89.60
2017-05-11T23:31:07.035Z,89.90
2017-05-11T23:33:35.432Z,89.10
2017-05-11T23:36:06.431Z,88.70
2017-05-11T23:38:34.779Z,88.90
2017-05-11T23:41:03.157Z,88.90
2017-05-11T23:43:31.512Z,89.00
2017-05-11T23:46:00.917Z,88.90
2017-05-11T23:48:29.993Z,88.80
2017-05-11T23:50:58.527Z,88.60
2017-05-11T23:53:27.123Z,88.90
2017-05-11T23:55:55.469Z,88.50
2017-05-11T23:58:23.809Z,88.80
